Track Авдеев Виталий

Time Latitude Longitude Accuracy (66% radius in meters) Altitude (meters) Speed (km/hour) Bearing (degrees) Battery (%) GPS flag
06:41:09 57.211936 60.118311 0 0 0 0 1 delete
06:41:07 57.211981 60.118321 0 0 0 0 1 delete
06:41:06 57.212002 60.118345 0 0 0 0 1 delete
06:41:01 57.212115 60.118364 0 0 0 0 1 delete
06:40:56 57.212239 60.118392 0 0 0 0 1 delete
06:40:53 57.212306 60.118419 0 0 0 0 1 delete
06:40:52 57.212337 60.118437 0 0 0 0 1 delete
06:40:50 57.212382 60.118517 0 0 0 0 1 delete
06:40:48 57.212446 60.118547 0 0 0 0 1 delete
06:40:47 57.212471 60.118565 0 0 0 0 1 delete
06:40:45 57.212518 60.118582 0 0 0 0 1 delete
06:40:41 57.212597 60.118502 0 0 0 0 1 delete
06:40:33 57.212695 60.118272 0 0 0 0 1 delete
06:40:32 57.212701 60.118237 0 0 0 0 1 delete
06:40:29 57.212689 60.118118 0 0 0 0 1 delete
06:40:26 57.212708 60.118047 0 0 0 0 1 delete
06:40:25 57.212707 60.118021 0 0 0 0 1 delete
06:40:21 57.212771 60.117882 0 0 0 0 1 delete
06:40:19 57.212817 60.117863 0 0 0 0 1 delete
06:40:17 57.212852 60.117954 0 0 0 0 1 delete
06:40:13 57.212931 60.118058 0 0 0 0 1 delete
06:40:09 57.213050 60.118144 0 0 0 0 1 delete
06:40:07 57.213098 60.118169 0 0 0 0 1 delete
06:40:05 57.213160 60.118204 0 0 0 0 1 delete
06:40:04 57.213183 60.118197 0 0 0 0 1 delete
06:39:59 57.213257 60.117994 0 0 0 0 1 delete
06:39:58 57.213256 60.117966 0 0 0 0 1 delete
06:39:54 57.213304 60.117834 0 0 0 0 1 delete
06:39:52 57.213346 60.117758 0 0 0 0 1 delete
06:39:50 57.213348 60.117714 0 0 0 0 1 delete
06:39:45 57.213405 60.117589 0 0 0 0 1 delete
06:39:44 57.213422 60.117553 0 0 0 0 1 delete
06:39:42 57.213443 60.117405 0 0 0 0 1 delete
06:39:38 57.213510 60.117295 0 0 0 0 1 delete
06:39:36 57.213537 60.117189 0 0 0 0 1 delete
06:39:35 57.213519 60.117122 0 0 0 0 1 delete
06:39:32 57.213494 60.116999 0 0 0 0 1 delete
06:39:31 57.213490 60.116911 0 0 0 0 1 delete
06:39:28 57.213372 60.116877 0 0 0 0 1 delete
06:39:25 57.213281 60.116847 0 0 0 0 1 delete
06:39:23 57.213231 60.116788 0 0 0 0 1 delete
06:39:18 57.213131 60.116585 0 0 0 0 1 delete
06:39:14 57.213103 60.116377 0 0 0 0 1 delete
06:39:12 57.213123 60.116277 0 0 0 0 1 delete
06:39:09 57.213069 60.116133 0 0 0 0 1 delete
06:39:08 57.213054 60.116091 0 0 0 0 1 delete
06:39:03 57.213081 60.115838 0 0 0 0 1 delete
06:38:58 57.213114 60.115557 0 0 0 0 1 delete
06:38:55 57.213080 60.115383 0 0 0 0 1 delete
06:38:50 57.213164 60.115119 0 0 0 0 1 delete